Time;durP1;ratioP1;P1;durP2;ratioP2;P2;SDS_P1;SDS_P2;PMS_P1;PMS_P2;Temp;Humidity;BMP_temperature;BMP_pressure;BME280_temperature;BME280_humidity;BME280_pressure;Samples;Min_cycle;Max_cycle;Signal;HPM_P1;HPM_P2
2022/01/30 00:00:07;;;;;;;3.70;3.10;;;;;;;5.38;83.99;98231.80;109322;1277;22545;-88
2022/01/30 00:02:38;;;;;;;4.70;2.30;;;;;;;5.43;83.71;98222.42;108572;1284;22581;-86
2022/01/30 00:05:06;;;;;;;3.80;2.50;;;;;;;5.48;83.71;98226.86;108207;1277;22669;-86
2022/01/30 00:07:34;;;;;;;2.30;2.10;;;;;;;5.49;83.39;98230.33;108140;1278;22559;-85
2022/01/30 00:10:06;;;;;;;3.20;2.30;;;;;;;5.54;83.01;98209.45;107437;1278;22611;-85
2022/01/30 00:12:45;;;;;;;2.80;2.20;;;;;;;5.57;83.07;98245.86;106138;1278;24246;-85
2022/01/30 00:15:13;;;;;;;2.70;2.20;;;;;;;5.58;82.97;98214.05;105165;1288;24240;-86
2022/01/30 00:18:06;;;;;;;1.90;1.70;;;;;;;5.57;82.75;98235.55;105180;1285;22710;-87
2022/01/30 00:20:35;;;;;;;3.40;2.10;;;;;;;5.52;82.99;98240.92;105610;1281;25576;-89
2022/01/30 00:23:12;;;;;;;1.90;1.60;;;;;;;5.48;83.05;98248.85;106038;1281;22556;-87
2022/01/30 00:25:51;;;;;;;3.10;1.50;;;;;;;5.42;82.30;98251.95;106121;1281;23469;-87
2022/01/30 00:28:19;;;;;;;4.30;1.30;;;;;;;5.36;81.26;98271.29;105801;1281;24425;-87
2022/01/30 00:30:47;;;;;;;2.20;1.10;;;;;;;5.29;80.70;98282.24;105866;1282;22558;-88
2022/01/30 00:33:14;;;;;;;4.10;1.20;;;;;;;5.24;80.87;98271.90;106139;1275;22559;-83
2022/01/30 00:35:42;;;;;;;4.10;1.20;;;;;;;5.19;80.79;98305.16;106084;1276;22562;-83
2022/01/30 00:38:15;;;;;;;3.30;1.40;;;;;;;5.13;80.95;98315.91;106525;1273;22531;-86
2022/01/30 00:40:44;;;;;;;3.80;1.00;;;;;;;5.04;81.20;98319.77;107448;1274;22616;-91
2022/01/30 00:43:12;;;;;;;3.00;1.10;;;;;;;5.01;81.02;98305.34;106862;1274;22655;-86
2022/01/30 00:45:40;;;;;;;7.00;1.60;;;;;;;4.99;80.54;98322.31;107482;1274;24217;-93
2022/01/30 00:48:08;;;;;;;3.30;1.00;;;;;;;5.00;79.51;98317.06;106891;1273;22556;-87
2022/01/30 00:50:38;;;;;;;2.20;1.00;;;;;;;4.95;79.19;98316.27;106706;1274;25369;-87
2022/01/30 00:53:06;;;;;;;4.80;1.20;;;;;;;4.97;78.55;98306.48;106592;1274;24275;-87
2022/01/30 00:55:35;;;;;;;6.70;1.80;;;;;;;4.96;77.45;98319.59;107360;1273;23590;-88
2022/01/30 00:58:03;;;;;;;6.10;1.80;;;;;;;4.92;77.16;98319.83;107599;1271;22477;-90
2022/01/30 01:00:31;;;;;;;6.20;1.30;;;;;;;4.90;76.27;98318.98;107221;1272;22673;-90
2022/01/30 01:02:59;;;;;;;3.70;1.20;;;;;;;4.88;76.24;98320.08;106663;1277;22542;-91
2022/01/30 01:05:29;;;;;;;3.80;1.30;;;;;;;4.87;75.52;98322.88;106027;1284;22728;-89
2022/01/30 01:07:59;;;;;;;5.30;1.20;;;;;;;4.82;75.67;98318.79;105991;1282;22590;-89
2022/01/30 01:23:50;;;;;;;6.60;1.80;;;;;;;4.44;72.30;98321.20;105206;1288;22643;-84
2022/01/30 01:26:20;;;;;;;3.70;1.50;;;;;;;4.39;72.25;98307.54;104915;1287;22780;-87
2022/01/30 01:28:47;;;;;;;5.30;1.30;;;;;;;4.36;72.25;98320.67;105309;1281;24038;-84
2022/01/30 01:31:16;;;;;;;6.30;1.60;;;;;;;4.32;72.06;98316.55;105862;1278;26001;-83
2022/01/30 01:34:07;;;;;;;6.00;1.40;;;;;;;4.30;72.16;98303.88;106366;1277;22700;-88
2022/01/30 01:36:34;;;;;;;6.70;1.50;;;;;;;4.28;71.68;98301.98;106412;1271;23854;-85
2022/01/30 01:39:04;;;;;;;3.00;1.30;;;;;;;4.26;71.91;98313.85;108729;1271;22861;-88
2022/01/30 01:41:33;;;;;;;7.10;1.60;;;;;;;4.26;72.09;98314.02;109093;1277;22542;-84
2022/01/30 01:44:00;;;;;;;9.10;2.10;;;;;;;4.25;71.99;98306.20;107318;1277;22568;-84
2022/01/30 01:46:32;;;;;;;5.70;1.70;;;;;;;4.27;72.01;98298.68;107553;1276;22599;-84
2022/01/30 01:49:00;;;;;;;5.50;1.80;;;;;;;4.26;71.58;98306.17;108978;1277;22734;-84
2022/01/30 01:51:31;;;;;;;4.20;1.50;;;;;;;4.25;71.04;98292.45;109207;1277;22502;-84
2022/01/30 01:54:00;;;;;;;5.60;1.50;;;;;;;4.26;71.48;98298.85;107597;1277;22542;-87
2022/01/30 01:56:30;;;;;;;10.30;2.10;;;;;;;4.27;71.10;98288.06;108211;1276;22654;-90
2022/01/30 01:59:04;;;;;;;6.50;1.60;;;;;;;4.27;71.10;98295.89;106932;1273;24155;-88
2022/01/30 02:01:52;;;;;;;8.50;2.30;;;;;;;4.26;70.85;98305.33;107561;1271;22554;-86
2022/01/30 02:04:21;;;;;;;5.70;1.50;;;;;;;4.23;70.88;98296.81;107413;1274;25980;-86
2022/01/30 02:06:59;;;;;;;4.90;1.40;;;;;;;4.23;70.94;98291.77;106344;1281;22604;-87
2022/01/30 02:09:30;;;;;;;7.40;2.10;;;;;;;4.24;70.70;98296.80;106314;1281;22731;-85
2022/01/30 02:12:47;;;;;;;;;;;;;;;;;;;;;
2022/01/30 02:26:02;;;;;;;4.10;1.50;;;;;;;4.17;70.31;98276.38;107669;1277;23116;-88
2022/01/30 02:28:32;;;;;;;5.50;1.90;;;;;;;4.16;70.34;98269.42;107882;1277;22568;-87
2022/01/30 02:31:08;;;;;;;7.00;2.30;;;;;;;4.13;71.16;98275.58;107744;1279;22610;-89
2022/01/30 02:33:36;;;;;;;5.50;2.10;;;;;;;4.10;71.68;98277.02;108808;1273;22549;-90
2022/01/30 02:36:04;;;;;;;6.60;2.00;;;;;;;4.09;71.92;98278.42;109175;1275;22578;-87
2022/01/30 02:38:31;;;;;;;9.00;2.10;;;;;;;4.04;72.07;98278.50;108532;1274;22670;-87
2022/01/30 02:40:59;;;;;;;11.50;1.90;;;;;;;3.96;72.20;98271.48;107941;1274;23615;-89
2022/01/30 02:43:36;;;;;;;13.10;2.30;;;;;;;3.91;72.32;98263.39;108081;1274;22516;-87
2022/01/30 02:46:10;;;;;;;6.30;1.80;;;;;;;3.87;72.64;98251.27;107246;1279;22545;-90
2022/01/30 02:48:50;;;;;;;4.60;1.60;;;;;;;3.86;72.71;98242.05;106226;1279;22715;-88
2022/01/30 02:51:21;;;;;;;13.00;2.60;;;;;;;3.87;72.54;98249.00;106203;1284;24245;-84
2022/01/30 02:54:02;;;;;;;9.90;2.60;;;;;;;3.85;72.38;98254.42;105514;1287;22566;-85
2022/01/30 02:56:37;;;;;;;10.30;2.50;;;;;;;3.83;71.86;98242.44;105855;1284;22748;-88
2022/01/30 02:59:04;;;;;;;7.50;2.00;;;;;;;3.81;71.93;98224.36;106655;1284;23974;-81
2022/01/30 03:01:31;;;;;;;9.50;2.40;;;;;;;3.81;71.99;98221.23;108194;1284;25343;-86
2022/01/30 03:04:01;;;;;;;8.30;2.60;;;;;;;3.81;71.37;98244.57;108051;1281;24258;-86
2022/01/30 03:06:28;;;;;;;8.00;2.40;;;;;;;3.82;70.81;98212.68;107586;1279;23184;-83
2022/01/30 03:08:55;;;;;;;13.10;3.10;;;;;;;3.82;70.70;98236.52;107578;1275;22495;-88
2022/01/30 03:11:24;;;;;;;10.60;2.40;;;;;;;3.79;70.71;98244.27;107294;1273;23866;-87
2022/01/30 03:13:51;;;;;;;12.80;2.40;;;;;;;3.79;70.90;98260.26;107392;1274;22954;-86
2022/01/30 03:16:20;;;;;;;6.30;1.60;;;;;;;3.80;70.94;98258.52;107131;1274;22669;-87
2022/01/30 03:18:49;;;;;;;8.50;1.80;;;;;;;3.74;71.17;98285.23;106511;1274;25474;-82
2022/01/30 03:21:17;;;;;;;8.00;1.40;;;;;;;3.62;72.18;98279.33;106664;1274;22560;-81
2022/01/30 03:23:44;;;;;;;4.10;1.50;;;;;;;3.44;72.59;98253.48;105932;1278;24289;-84
2022/01/30 03:26:13;;;;;;;5.20;1.40;;;;;;;3.29;72.87;98237.86;106285;1280;25329;-84
2022/01/30 03:29:05;;;;;;;7.20;2.20;;;;;;;3.15;73.16;98248.83;105921;1281;22817;-83
2022/01/30 03:31:40;;;;;;;4.40;1.40;;;;;;;3.06;73.20;98241.47;107190;1279;22597;-89
2022/01/30 03:34:11;;;;;;;3.90;1.10;;;;;;;3.03;73.26;98228.13;106701;1280;24242;-85
2022/01/30 03:36:49;;;;;;;7.00;1.90;;;;;;;3.02;73.30;98226.58;106095;1281;23976;-83
2022/01/30 03:39:18;;;;;;;5.40;1.70;;;;;;;2.95;73.36;98213.79;105756;1281;25116;-85
2022/01/30 03:41:46;;;;;;;3.50;0.90;;;;;;;2.93;73.54;98216.26;105890;1273;22700;-82
2022/01/30 03:44:14;;;;;;;4.10;1.30;;;;;;;2.90;73.58;98216.11;106038;1278;22538;-83
2022/01/30 03:46:42;;;;;;;10.40;1.40;;;;;;;2.90;73.66;98213.85;106010;1279;25375;-84
2022/01/30 03:49:22;;;;;;;7.50;1.90;;;;;;;2.91;73.54;98208.63;106060;1279;22789;-79
2022/01/30 03:51:49;;;;;;;6.60;2.10;;;;;;;2.88;73.47;98198.77;105738;1279;22670;-84
2022/01/30 03:54:24;;;;;;;3.70;1.10;;;;;;;2.86;73.66;98198.60;105958;1279;25265;-86
2022/01/30 03:56:51;;;;;;;4.20;1.10;;;;;;;2.88;73.50;98197.01;105755;1281;24242;-84
2022/01/30 03:59:24;;;;;;;8.20;1.70;;;;;;;2.91;73.61;98188.98;106046;1279;25263;-86
2022/01/30 04:01:51;;;;;;;4.20;1.40;;;;;;;2.93;73.73;98186.33;105236;1279;25547;-80
2022/01/30 04:04:20;;;;;;;4.90;1.50;;;;;;;2.95;73.83;98188.92;106106;1281;22487;-86
2022/01/30 04:06:49;;;;;;;7.50;1.90;;;;;;;2.93;73.87;98179.91;105616;1281;25364;-81
2022/01/30 04:09:42;;;;;;;4.10;1.20;;;;;;;2.88;74.04;98174.24;105509;1282;25879;-85
2022/01/30 04:12:17;;;;;;;6.10;1.90;;;;;;;2.89;74.48;98169.37;105784;1281;25492;-86
2022/01/30 04:15:01;;;;;;;12.90;2.00;;;;;;;2.90;74.52;98172.31;105103;1285;25310;-82
2022/01/30 04:17:50;;;;;;;6.60;1.70;;;;;;;2.90;74.74;98169.00;104652;1290;24932;-82
2022/01/30 04:20:41;;;;;;;4.90;1.50;;;;;;;2.92;74.87;98159.75;104745;1287;24018;-83
2022/01/30 04:23:11;;;;;;;5.80;1.90;;;;;;;2.94;74.97;98151.38;105173;1287;22554;-84
2022/01/30 04:25:57;;;;;;;11.60;2.00;;;;;;;2.97;74.87;98150.98;105226;1285;22554;-79
2022/01/30 04:28:57;;;;;;;7.90;1.80;;;;;;;2.98;74.49;98143.85;104814;1286;22923;-79
2022/01/30 04:31:24;;;;;;;6.90;2.10;;;;;;;3.01;74.37;98139.13;105227;1285;22668;-83
2022/01/30 04:34:19;;;;;;;10.70;3.10;;;;;;;3.10;74.13;98142.64;105633;1281;25305;-84
2022/01/30 04:37:13;;;;;;;9.90;2.30;;;;;;;3.20;73.87;98128.22;105909;1277;25582;-84
2022/01/30 04:40:17;;;;;;;11.70;2.60;;;;;;;3.27;72.91;98126.03;105943;1275;25390;-83
2022/01/30 04:58:17;;;;;;;7.70;2.20;;;;;;;3.46;71.10;98088.84;105812;1276;22560;-81
2022/01/30 05:01:11;;;;;;;7.40;1.70;;;;;;;3.49;71.38;98085.83;106297;1276;22562;-84
2022/01/30 05:04:45;;;;;;;4.10;1.40;;;;;;;3.51;71.30;98078.83;106181;1275;26488;-84
2022/01/30 05:10:07;;;;;;;6.30;1.90;;;;;;;3.53;70.36;98056.34;108207;1287;22594;-89
2022/01/30 05:12:51;;;;;;;9.30;2.10;;;;;;;3.56;70.30;98042.54;107713;1287;22592;-84
2022/01/30 05:15:22;;;;;;;6.70;2.00;;;;;;;3.55;70.26;98042.04;107258;1282;24230;-83
2022/01/30 05:18:08;;;;;;;12.20;2.50;;;;;;;3.59;70.12;98035.85;107691;1282;22653;-83
2022/01/30 05:20:44;;;;;;;6.40;2.10;;;;;;;3.59;69.96;98031.16;107175;1283;25248;-81
2022/01/30 05:23:24;;;;;;;8.70;2.10;;;;;;;3.59;69.83;98027.85;106018;1282;25467;-82
2022/01/30 05:26:22;;;;;;;4.70;2.80;;;;;;;3.58;69.84;98002.81;106065;1278;22646;-88
2022/01/30 05:29:17;;;;;;;6.20;1.70;;;;;;;3.57;70.30;98003.36;108475;1273;22572;-89
2022/01/30 05:32:03;;;;;;;8.10;2.00;;;;;;;3.44;70.91;98004.30;109242;1273;22547;-83
2022/01/30 05:34:50;;;;;;;5.50;1.50;;;;;;;3.25;72.08;97998.02;109137;1273;22542;-86
2022/01/30 05:37:37;;;;;;;6.50;1.70;;;;;;;3.08;73.15;98030.48;109526;1274;22553;-85
2022/01/30 05:40:39;;;;;;;6.30;1.90;;;;;;;2.96;73.65;98016.60;108890;1273;22564;-83
2022/01/30 05:43:06;;;;;;;5.10;1.70;;;;;;;2.92;73.47;98021.71;108834;1279;25371;-76
2022/01/30 05:45:47;;;;;;;6.30;1.50;;;;;;;2.92;73.34;98047.09;108351;1280;22636;-87
2022/01/30 05:48:34;;;;;;;7.10;2.20;;;;;;;2.98;72.88;98046.83;108151;1279;23403;-83
2022/01/30 05:51:13;;;;;;;8.90;2.40;;;;;;;3.02;72.49;98052.69;109144;1278;22923;-84
2022/01/30 05:53:46;;;;;;;10.20;1.90;;;;;;;3.06;72.23;98056.27;109091;1279;22906;-80
2022/01/30 05:56:18;;;;;;;5.70;2.10;;;;;;;3.08;71.33;98043.73;108890;1279;22601;-88
2022/01/30 05:58:45;;;;;;;8.00;1.80;;;;;;;3.12;71.13;98040.52;109214;1279;22544;-86
2022/01/30 06:01:38;;;;;;;7.30;2.20;;;;;;;3.15;70.23;98053.85;108302;1273;23836;-87
2022/01/30 06:04:20;;;;;;;7.50;2.20;;;;;;;3.15;69.34;98047.42;108356;1273;22599;-87
2022/01/30 06:06:53;;;;;;;6.60;2.20;;;;;;;3.20;69.17;98044.91;107899;1279;22575;-87
2022/01/30 06:09:20;;;;;;;8.60;2.30;;;;;;;3.21;68.58;98064.20;106692;1279;24231;-87
2022/01/30 06:16:04;;;;;;;6.90;2.30;;;;;;;3.31;68.34;98056.73;105802;1279;24292;-87
2022/01/30 06:18:56;;;;;;;8.40;1.70;;;;;;;3.31;68.28;98054.29;105841;1279;22681;-88
2022/01/30 06:21:42;;;;;;;11.30;3.00;;;;;;;3.31;67.90;98058.28;105861;1279;22580;-88
2022/01/30 06:24:54;;;;;;;10.00;2.40;;;;;;;3.30;67.86;98063.70;105966;1274;25410;-87
2022/01/30 06:32:09;;;;;;;11.40;2.70;;;;;;;3.27;67.96;98068.29;106271;1274;24798;-87
2022/01/30 06:34:58;;;;;;;6.50;1.70;;;;;;;3.25;68.21;98076.84;105832;1281;24224;-88
2022/01/30 06:42:32;;;;;;;11.80;2.50;;;;;;;3.27;68.28;98069.66;105502;1290;23368;-87
2022/01/30 06:50:28;;;;;;;4.20;1.90;;;;;;;3.12;68.71;98073.20;104683;1291;25336;-85
2022/01/30 06:57:23;;;;;;;6.20;1.90;;;;;;;3.08;69.36;98063.55;104903;1293;24307;-87
2022/01/30 07:00:22;;;;;;;6.10;1.80;;;;;;;3.09;69.47;98062.30;104499;1293;23112;-83
2022/01/30 07:03:16;;;;;;;8.40;2.10;;;;;;;3.08;69.22;98060.06;104598;1293;22620;-83
2022/01/30 07:05:50;;;;;;;9.20;2.00;;;;;;;3.06;69.21;98055.57;104743;1288;25393;-83
2022/01/30 07:08:41;;;;;;;5.90;2.10;;;;;;;3.06;69.16;98062.00;105165;1287;22665;-84
2022/01/30 07:11:08;;;;;;;5.40;1.70;;;;;;;3.08;69.03;98053.27;105143;1287;24240;-84
2022/01/30 07:14:15;;;;;;;10.60;2.00;;;;;;;3.11;69.30;98038.61;105277;1287;22701;-83
2022/01/30 07:16:42;;;;;;;8.00;1.90;;;;;;;3.13;69.63;98047.45;105087;1286;22509;-84
2022/01/30 07:19:09;;;;;;;6.20;1.50;;;;;;;3.10;69.83;98038.48;105177;1280;22579;-84
2022/01/30 07:21:37;;;;;;;6.50;1.70;;;;;;;3.01;70.24;98025.91;105494;1279;23555;-84
2022/01/30 07:24:05;;;;;;;8.00;2.00;;;;;;;2.95;70.99;98022.34;105380;1279;24423;-82
2022/01/30 07:26:32;;;;;;;9.80;2.00;;;;;;;2.88;71.28;98023.33;105439;1280;22560;-85
2022/01/30 07:29:00;;;;;;;6.10;1.70;;;;;;;2.86;71.62;98020.42;105401;1279;23503;-83
2022/01/30 07:31:28;;;;;;;8.00;1.80;;;;;;;2.82;71.82;98009.52;105973;1274;22531;-85
2022/01/30 07:33:55;;;;;;;5.80;2.10;;;;;;;2.84;72.14;98004.63;106217;1276;22577;-86
2022/01/30 07:36:22;;;;;;;7.60;2.10;;;;;;;2.82;72.68;97994.92;106086;1274;22480;-87
2022/01/30 07:38:49;;;;;;;4.00;1.40;;;;;;;2.78;72.96;98002.64;106025;1275;24374;-88
2022/01/30 07:41:17;;;;;;;5.50;1.80;;;;;;;2.71;73.46;98017.17;105895;1281;22582;-88
2022/01/30 07:44:09;;;;;;;2.60;1.20;;;;;;;2.61;74.46;98016.64;108444;1265;23689;-92
2022/01/30 07:46:44;;;;;;;4.00;1.50;;;;;;;2.51;74.90;98007.39;108107;1277;25267;-85
2022/01/30 07:49:12;;;;;;;3.30;1.90;;;;;;;2.44;75.79;98010.77;107161;1284;22551;-87
2022/01/30 07:51:39;;;;;;;5.70;1.90;;;;;;;2.37;76.24;98013.48;107549;1284;22611;-82
2022/01/30 07:54:06;;;;;;;2.00;1.00;;;;;;;2.26;76.70;98005.13;106620;1284;22537;-83
2022/01/30 07:56:33;;;;;;;1.70;1.20;;;;;;;2.11;77.08;98020.09;105880;1284;24397;-83
2022/01/30 07:59:00;;;;;;;3.00;1.20;;;;;;;1.96;77.49;98012.65;105675;1285;25542;-85
2022/01/30 08:01:27;;;;;;;2.00;1.20;;;;;;;1.80;77.89;98027.60;105727;1285;26695;-84
2022/01/30 08:03:55;;;;;;;2.30;1.00;;;;;;;1.72;78.00;98021.09;105347;1281;23506;-84
2022/01/30 08:06:22;;;;;;;1.90;0.80;;;;;;;1.66;78.33;98036.08;105895;1281;22602;-85
2022/01/30 08:08:49;;;;;;;2.80;1.10;;;;;;;1.60;78.47;98050.71;107304;1280;22671;-87
2022/01/30 08:11:16;;;;;;;3.70;1.50;;;;;;;1.53;78.82;98063.27;106678;1281;22687;-89
2022/01/30 08:13:45;;;;;;;2.00;1.10;;;;;;;1.55;78.70;98053.90;106558;1281;26001;-87
2022/01/30 08:16:12;;;;;;;2.40;1.00;;;;;;;1.54;78.73;98049.23;106715;1281;24390;-87
2022/01/30 08:18:39;;;;;;;1.20;0.80;;;;;;;1.52;78.90;98058.61;106337;1281;22604;-88
2022/01/30 08:21:06;;;;;;;2.00;0.90;;;;;;;1.42;79.27;98049.34;106108;1287;22739;-90
2022/01/30 08:23:34;;;;;;;2.70;0.90;;;;;;;1.36;79.33;98050.44;105289;1287;22582;-86
2022/01/30 08:26:02;;;;;;;2.00;0.90;;;;;;;1.31;79.62;98036.78;104677;1291;22583;-86
2022/01/30 08:28:30;;;;;;;1.90;0.60;;;;;;;1.38;79.55;98054.91;105522;1285;22639;-89
2022/01/30 08:30:58;;;;;;;1.20;0.70;;;;;;;1.41;79.66;98048.64;105290;1285;22561;-87
2022/01/30 08:33:25;;;;;;;2.40;0.80;;;;;;;1.48;79.56;98045.80;105889;1284;24355;-87
2022/01/30 08:35:52;;;;;;;1.00;0.60;;;;;;;1.53;79.49;98046.63;104690;1291;264019;-87
2022/01/30 08:38:20;;;;;;;0.70;0.60;;;;;;;1.56;79.44;98054.92;104818;1291;25451;-89
2022/01/30 08:40:49;;;;;;;1.20;0.80;;;;;;;1.65;79.37;98068.19;105022;1285;23933;-86
2022/01/30 08:43:21;;;;;;;0.90;0.60;;;;;;;1.68;79.11;98056.18;105262;1280;22823;-87
2022/01/30 08:45:50;;;;;;;1.60;0.90;;;;;;;1.68;78.85;98050.62;105712;1279;22563;-89
2022/01/30 08:48:20;;;;;;;1.40;0.60;;;;;;;1.72;78.92;98061.69;105597;1279;22586;-89
2022/01/30 08:50:47;;;;;;;1.20;0.60;;;;;;;1.73;78.93;98058.38;105720;1279;22576;-86
2022/01/30 08:53:16;;;;;;;0.90;0.70;;;;;;;1.71;78.60;98052.34;105624;1279;24215;-88
2022/01/30 08:55:43;;;;;;;0.90;0.60;;;;;;;1.68;78.37;98052.18;105663;1279;22649;-81
2022/01/30 08:58:10;;;;;;;0.50;0.50;;;;;;;1.70;78.23;98061.70;105599;1279;24392;-82
2022/01/30 09:00:40;;;;;;;2.10;0.70;;;;;;;1.77;78.36;98062.34;105854;1273;22546;-80
2022/01/30 09:03:08;;;;;;;0.70;0.70;;;;;;;1.81;78.37;98067.32;105958;1274;22557;-81
2022/01/30 09:05:38;;;;;;;0.70;0.70;;;;;;;1.85;78.64;98057.02;105832;1276;23282;-81
2022/01/30 09:08:07;;;;;;;1.60;0.90;;;;;;;1.88;78.39;98061.00;106164;1273;26520;-80
2022/01/30 09:10:37;;;;;;;1.20;0.80;;;;;;;1.85;78.57;98056.34;106083;1274;23767;-83
2022/01/30 09:13:05;;;;;;;0.70;0.60;;;;;;;1.83;78.57;98055.31;106025;1273;24279;-82
2022/01/30 09:15:40;;;;;;;3.20;1.10;;;;;;;1.83;78.65;98053.07;105789;1273;25433;-81
2022/01/30 09:18:10;;;;;;;3.00;1.10;;;;;;;1.81;78.73;98061.77;106053;1273;25403;-83
2022/01/30 09:20:39;;;;;;;3.00;0.90;;;;;;;1.84;78.75;98052.88;106015;1276;23482;-83
2022/01/30 09:23:08;;;;;;;1.40;0.80;;;;;;;1.89;78.96;98058.73;106019;1274;22553;-79
2022/01/30 09:25:41;;;;;;;2.40;1.10;;;;;;;1.95;78.89;98055.02;105800;1276;24219;-81
2022/01/30 09:28:08;;;;;;;4.30;1.70;;;;;;;2.01;78.98;98052.69;105997;1273;22562;-84
2022/01/30 09:30:36;;;;;;;1.70;0.90;;;;;;;2.03;78.62;98048.50;106112;1275;22583;-85
2022/01/30 09:33:03;;;;;;;2.40;1.20;;;;;;;2.05;78.82;98045.00;106091;1274;22565;-85
2022/01/30 09:35:31;;;;;;;2.00;0.80;;;;;;;2.10;78.57;98067.52;106368;1275;22541;-83
2022/01/30 09:37:58;;;;;;;2.00;1.10;;;;;;;2.13;78.50;98062.79;106862;1273;25463;-84
2022/01/30 09:40:25;;;;;;;2.50;0.90;;;;;;;2.15;78.44;98064.52;106815;1273;22539;-84
2022/01/30 09:42:56;;;;;;;4.10;1.20;;;;;;;2.17;78.41;98068.48;108033;1274;22844;-88
2022/01/30 09:45:24;;;;;;;2.50;1.30;;;;;;;2.18;78.49;98064.98;108886;1279;22977;-88
2022/01/30 09:47:52;;;;;;;4.40;1.40;;;;;;;2.22;78.62;98063.36;107955;1279;22501;-86
2022/01/30 09:50:22;;;;;;;4.20;1.20;;;;;;;2.27;78.55;98066.60;108783;1278;25413;-87
2022/01/30 09:52:52;;;;;;;4.70;1.40;;;;;;;2.31;78.53;98066.38;108666;1282;22514;-84
2022/01/30 09:55:19;;;;;;;4.40;1.60;;;;;;;2.35;78.61;98068.59;108179;1282;23273;-88
2022/01/30 09:57:48;;;;;;;2.50;1.30;;;;;;;2.37;78.46;98059.36;106500;1282;25484;-82
2022/01/30 10:00:16;;;;;;;4.90;2.00;;;;;;;2.40;78.56;98054.63;105744;1288;22642;-84
2022/01/30 10:02:45;;;;;;;4.00;1.80;;;;;;;2.42;78.54;98059.81;105804;1287;24367;-85
2022/01/30 10:05:14;;;;;;;3.50;1.60;;;;;;;2.45;78.43;98057.86;105854;1284;23248;-83
2022/01/30 10:07:44;;;;;;;7.40;1.90;;;;;;;2.47;78.50;98052.63;105224;1284;25402;-81
2022/01/30 10:10:17;;;;;;;6.70;1.90;;;;;;;2.51;78.43;98066.12;105275;1281;24280;-83
2022/01/30 10:13:04;;;;;;;7.20;2.20;;;;;;;2.50;78.27;98061.78;105723;1282;23014;-87
2022/01/30 10:19:33;;;;;;;8.30;2.50;;;;;;;2.54;78.59;98055.13;105575;1285;22586;-86
2022/01/30 10:22:06;;;;;;;10.80;2.80;;;;;;;2.53;78.56;98049.94;105584;1285;23778;-86
2022/01/30 10:24:40;;;;;;;9.40;2.10;;;;;;;2.58;78.60;98043.96;105251;1285;22723;-87
2022/01/30 10:27:23;;;;;;;7.60;2.30;;;;;;;2.60;78.53;98036.63;105563;1288;22555;-85
2022/01/30 10:30:07;;;;;;;5.20;1.70;;;;;;;2.60;78.59;98038.02;104976;1294;22621;-86
2022/01/30 10:32:35;;;;;;;8.20;2.50;;;;;;;2.59;78.59;98044.80;104931;1294;22686;-88
2022/01/30 10:35:07;;;;;;;5.60;2.30;;;;;;;2.60;78.89;98048.11;105111;1293;22574;-87
2022/01/30 10:37:39;;;;;;;7.40;2.20;;;;;;;2.65;79.11;98038.46;104956;1290;23411;-87
2022/01/30 10:40:34;;;;;;;6.80;2.50;;;;;;;2.69;79.24;98037.18;104784;1290;25962;-86
2022/01/30 10:43:00;;;;;;;7.40;2.50;;;;;;;2.66;79.23;98038.10;104848;1293;22574;-87
2022/01/30 10:45:31;;;;;;;6.90;1.90;;;;;;;2.66;79.46;98040.71;105321;1287;24365;-87
2022/01/30 10:48:20;;;;;;;6.10;2.10;;;;;;;2.64;79.70;98037.77;105861;1281;22598;-87
2022/01/30 10:50:50;;;;;;;2.90;1.60;;;;;;;2.63;79.69;98036.94;106610;1276;22583;-89
2022/01/30 10:53:23;;;;;;;6.10;2.30;;;;;;;2.59;80.14;98037.69;106315;1281;23141;-87
2022/01/30 10:55:51;;;;;;;4.80;2.30;;;;;;;2.55;80.19;98048.86;106985;1279;22547;-87
2022/01/30 10:58:22;;;;;;;11.20;3.00;;;;;;;2.52;80.36;98043.69;106897;1280;22807;-85
2022/01/30 11:00:55;;;;;;;7.40;2.30;;;;;;;2.50;80.34;98019.73;106765;1279;22568;-88
2022/01/30 11:03:50;;;;;;;4.00;1.70;;;;;;;2.51;80.61;98033.80;106949;1279;22667;-87
2022/01/30 11:06:20;;;;;;;6.20;2.30;;;;;;;2.53;80.52;98023.70;107381;1278;22611;-86
2022/01/30 11:08:50;;;;;;;9.00;2.50;;;;;;;2.55;80.63;98022.10;106850;1285;22663;-87
2022/01/30 11:11:37;;;;;;;9.10;2.70;;;;;;;2.54;80.66;98019.16;106647;1281;23884;-87
2022/01/30 11:19:22;;;;;;;7.40;2.20;;;;;;;2.49;81.21;98015.06;106133;1279;22564;-86
2022/01/30 11:21:53;;;;;;;8.30;2.70;;;;;;;2.46;81.36;98017.88;107776;1279;22562;-86
2022/01/30 11:24:25;;;;;;;4.70;1.80;;;;;;;2.45;81.54;98026.59;108657;1279;22701;-85
2022/01/30 11:26:53;;;;;;;3.40;1.60;;;;;;;2.49;81.17;98054.85;109034;1275;22660;-87
2022/01/30 11:29:21;;;;;;;3.60;1.70;;;;;;;2.52;80.59;98060.54;109315;1275;22966;-88
2022/01/30 11:31:51;;;;;;;5.40;1.80;;;;;;;2.56;80.60;98071.27;108895;1274;24476;-86
2022/01/30 11:34:18;;;;;;;4.00;1.60;;;;;;;2.63;80.61;98068.05;108047;1274;22542;-88
2022/01/30 11:36:48;;;;;;;6.40;2.10;;;;;;;2.71;80.52;98080.27;107371;1273;22630;-86
2022/01/30 11:39:19;;;;;;;5.60;2.00;;;;;;;2.77;80.39;98075.83;108550;1281;22578;-87
2022/01/30 11:45:08;;;;;;;3.30;1.90;;;;;;;2.87;79.90;98089.44;109473;1277;22562;-90
2022/01/30 11:50:40;;;;;;;7.90;2.10;;;;;;;2.95;79.37;98088.42;109335;1278;22809;-81
2022/01/30 11:53:27;;;;;;;3.80;1.70;;;;;;;3.02;79.23;98092.85;108214;1279;25306;-81
2022/01/30 11:56:02;;;;;;;5.70;2.70;;;;;;;3.11;78.95;98093.05;107048;1284;25355;-81
2022/01/30 11:58:40;;;;;;;4.90;2.00;;;;;;;3.15;78.72;98088.80;105893;1286;25364;-84
2022/01/30 12:01:46;;;;;;;4.70;2.00;;;;;;;3.13;78.64;98094.94;105753;1288;22600;-84
2022/01/30 12:04:16;;;;;;;6.50;2.20;;;;;;;3.12;78.76;98102.60;104862;1299;26836;-85
2022/01/30 12:06:47;;;;;;;5.40;2.20;;;;;;;3.06;78.73;98113.82;105142;1300;24321;-84
2022/01/30 12:09:44;;;;;;;3.90;2.20;;;;;;;2.98;78.71;98110.48;105205;1300;23958;-85
2022/01/30 12:12:15;;;;;;;3.80;1.90;;;;;;;2.92;79.03;98112.81;104889;1304;22522;-86
2022/01/30 12:14:46;;;;;;;3.60;2.40;;;;;;;2.90;79.21;98125.52;105028;1302;25428;-86
2022/01/30 12:17:14;;;;;;;3.40;1.70;;;;;;;2.93;79.39;98134.70;105288;1303;22649;-88
2022/01/30 12:19:45;;;;;;;4.20;1.80;;;;;;;2.93;79.25;98140.61;105438;1303;22752;-86
2022/01/30 12:22:18;;;;;;;3.80;1.80;;;;;;;2.93;79.42;98146.36;105222;1308;22641;-87
2022/01/30 12:24:51;;;;;;;2.50;1.40;;;;;;;2.91;79.44;98140.65;105437;1305;23344;-88
2022/01/30 12:27:19;;;;;;;2.30;1.50;;;;;;;2.88;79.01;98161.73;105449;1302;23982;-88
2022/01/30 12:29:50;;;;;;;1.90;1.20;;;;;;;2.88;79.26;98173.91;105317;1303;22528;-86
2022/01/30 12:32:21;;;;;;;1.60;0.90;;;;;;;2.84;79.26;98169.25;105236;1305;25362;-86
2022/01/30 12:35:20;;;;;;;1.80;1.30;;;;;;;2.83;79.66;98184.04;105613;1298;22613;-86
2022/01/30 12:37:48;;;;;;;4.10;1.70;;;;;;;2.82;79.67;98196.39;105411;1302;22576;-87
2022/01/30 12:40:22;;;;;;;4.10;1.60;;;;;;;2.77;79.74;98211.92;104960;1302;24092;-87
2022/01/30 12:42:52;;;;;;;2.80;1.20;;;;;;;2.73;79.94;98213.71;105143;1296;22834;-87
2022/01/30 12:45:19;;;;;;;2.10;1.20;;;;;;;2.69;79.99;98219.84;105175;1296;22515;-89
2022/01/30 12:47:59;;;;;;;1.60;1.20;;;;;;;2.65;80.16;98218.33;104552;1302;23524;-88
2022/01/30 12:50:32;;;;;;;2.30;0.90;;;;;;;2.62;80.13;98217.86;105139;1296;24251;-86
2022/01/30 12:53:02;;;;;;;1.40;0.90;;;;;;;2.60;80.09;98218.21;105419;1297;24128;-87
2022/01/30 12:55:32;;;;;;;1.20;0.90;;;;;;;2.58;80.29;98226.06;104940;1299;22640;-88
2022/01/30 12:58:00;;;;;;;2.00;1.20;;;;;;;2.56;80.37;98222.96;105435;1299;22580;-88
2022/01/30 13:00:27;;;;;;;3.90;1.40;;;;;;;2.55;80.49;98223.83;105884;1299;22630;-87
2022/01/30 13:03:00;;;;;;;2.30;1.00;;;;;;;2.51;80.58;98240.39;105301;1299;22622;-88
2022/01/30 13:05:30;;;;;;;2.50;0.90;;;;;;;2.47;80.71;98245.82;103831;1297;22573;-83
2022/01/30 13:07:59;;;;;;;1.90;1.00;;;;;;;2.44;80.96;98262.52;104471;1297;23278;-88
2022/01/30 13:10:27;;;;;;;1.50;1.10;;;;;;;2.41;81.11;98273.67;103975;1304;22595;-88
2022/01/30 13:13:00;;;;;;;2.40;1.10;;;;;;;2.37;81.17;98269.56;104210;1300;22572;-89
2022/01/30 13:15:28;;;;;;;1.90;1.00;;;;;;;2.33;81.32;98282.44;104880;1293;22769;-88
2022/01/30 13:17:59;;;;;;;2.30;0.90;;;;;;;2.22;81.75;98283.92;105239;1290;25303;-88
2022/01/30 13:20:37;;;;;;;1.50;1.00;;;;;;;2.16;82.06;98290.94;105252;1293;23993;-90
2022/01/30 13:23:05;;;;;;;1.40;1.10;;;;;;;2.14;82.36;98298.44;104496;1293;25510;-82
2022/01/30 13:25:32;;;;;;;1.80;1.20;;;;;;;2.17;82.37;98305.69;105249;1290;24252;-86